Van Buren, Missouri
Current Conditions -  °F | °C
As of 2:57 AM on Saturday 25 Oct 2014 (Local Time) from KPOF Reporting Station
Haze Haze  
Wind Chill: 52°   Ceiling: Unl
Heat Index: 52°   Visibility: 1.5mi
Dew Point: 49°   Wind: 0mph
Humidity: 89%   Direction: NA
Pressure: 30.04"   Gusts: NA
Location:  37°N, 91.01°W
Report Text: KPOF 250757Z AUTO 00000KT 1 1/2SM BR CLR 11/09 A3004 RMK AO2 VIS 1/2V5 T01110094
Loading
Personal Weather Stations






























Interactive Weather Map
Tropical Storm Tracking
New forecast layout! Learn more

10-Day Weather Forecast

Advertisements
Track Severe Weather on mobile